createdAt,value
2018-04-30T00:00:30.850Z,18.81
2018-04-30T00:02:57.263Z,18.79
2018-04-30T00:05:23.446Z,18.80
2018-04-30T00:07:50.063Z,18.80
2018-04-30T00:10:16.213Z,18.79
2018-04-30T00:12:42.684Z,18.80
2018-04-30T00:15:08.861Z,18.80
2018-04-30T00:17:35.043Z,18.79
2018-04-30T00:20:01.206Z,18.79
2018-04-30T00:22:27.691Z,18.78
2018-04-30T00:24:53.837Z,18.77
2018-04-30T00:27:19.972Z,18.78
2018-04-30T00:29:46.149Z,18.78
2018-04-30T00:32:12.298Z,18.77
2018-04-30T00:34:38.504Z,18.77
2018-04-30T00:37:04.679Z,18.78
2018-04-30T00:39:30.821Z,18.76
2018-04-30T00:41:57.018Z,18.75
2018-04-30T00:44:23.153Z,18.76
2018-04-30T00:46:49.288Z,18.75
2018-04-30T00:49:15.582Z,18.76
2018-04-30T00:51:41.730Z,18.75
2018-04-30T00:54:07.884Z,18.76
2018-04-30T00:56:34.485Z,18.76
2018-04-30T00:59:00.633Z,18.76
2018-04-30T01:01:26.777Z,18.76
2018-04-30T01:03:52.953Z,18.77
2018-04-30T01:06:19.102Z,18.77
2018-04-30T01:08:45.265Z,18.78
2018-04-30T01:11:11.409Z,18.77
2018-04-30T01:13:37.917Z,18.78
2018-04-30T01:16:04.089Z,18.76
2018-04-30T01:18:30.228Z,18.75
2018-04-30T01:20:56.663Z,18.76
2018-04-30T01:23:23.098Z,18.76
2018-04-30T01:25:49.285Z,18.77
2018-04-30T01:28:15.760Z,18.76
2018-04-30T01:30:41.930Z,18.75
2018-04-30T01:33:08.077Z,18.75
2018-04-30T01:35:35.238Z,18.75
2018-04-30T01:38:01.378Z,18.74
2018-04-30T01:40:27.525Z,18.72
2018-04-30T01:42:53.693Z,18.70
2018-04-30T01:45:19.850Z,18.71
2018-04-30T01:47:46.053Z,18.71
2018-04-30T01:50:12.224Z,18.69
2018-04-30T01:52:38.651Z,18.71
2018-04-30T01:55:04.845Z,18.69
2018-04-30T01:57:30.984Z,18.70
2018-04-30T01:59:57.173Z,18.69
2018-04-30T02:02:23.406Z,18.68
2018-04-30T02:04:49.555Z,18.68
2018-04-30T02:07:15.738Z,18.67
2018-04-30T02:09:41.876Z,18.67
2018-04-30T02:12:08.045Z,18.67
2018-04-30T02:14:34.218Z,18.66
2018-04-30T02:17:00.737Z,18.65
2018-04-30T02:19:27.161Z,18.64
2018-04-30T02:21:53.333Z,18.65
2018-04-30T02:24:19.590Z,18.65
2018-04-30T02:26:45.737Z,18.65
2018-04-30T02:29:12.414Z,18.64
2018-04-30T02:31:38.562Z,18.63
2018-04-30T02:34:04.710Z,18.63
2018-04-30T02:36:31.003Z,18.63
2018-04-30T02:38:57.149Z,18.62
2018-04-30T02:41:23.294Z,18.61
2018-04-30T02:43:49.472Z,18.61
2018-04-30T02:46:15.614Z,18.62
2018-04-30T02:48:41.829Z,18.63
2018-04-30T02:51:08.050Z,18.63
2018-04-30T02:53:34.193Z,18.63
2018-04-30T02:56:00.373Z,18.64
2018-04-30T02:58:26.998Z,18.63
2018-04-30T03:00:53.147Z,18.63
2018-04-30T03:03:19.281Z,18.63
2018-04-30T03:05:45.474Z,18.64
2018-04-30T03:08:11.946Z,18.63
2018-04-30T03:10:38.371Z,18.63
2018-04-30T03:13:04.551Z,18.62
2018-04-30T03:15:30.702Z,18.61
2018-04-30T03:17:57.027Z,18.60
2018-04-30T03:20:23.483Z,18.60
2018-04-30T03:22:49.629Z,18.60
2018-04-30T03:25:15.857Z,18.61
2018-04-30T03:27:42.003Z,18.59
2018-04-30T03:30:08.144Z,18.59
2018-04-30T03:32:34.343Z,18.60
2018-04-30T03:35:00.483Z,18.60
2018-04-30T03:37:26.633Z,18.59
2018-04-30T03:39:52.818Z,18.58
2018-04-30T03:42:19.053Z,18.56
2018-04-30T03:44:45.645Z,18.54
2018-04-30T03:47:11.778Z,18.55
2018-04-30T03:49:37.978Z,18.55
2018-04-30T03:52:04.159Z,18.55
2018-04-30T03:54:30.581Z,18.56
2018-04-30T03:56:56.864Z,18.55
2018-04-30T03:59:23.009Z,18.54
2018-04-30T04:02:02.324Z,18.54
2018-04-30T04:04:40.682Z,18.54
2018-04-30T04:07:06.849Z,18.54
2018-04-30T04:09:32.994Z,18.53
2018-04-30T04:11:59.175Z,18.51
2018-04-30T04:14:25.693Z,18.53
2018-04-30T04:16:51.839Z,18.52
2018-04-30T04:19:17.977Z,18.53
2018-04-30T04:21:44.479Z,18.55
2018-04-30T04:24:10.672Z,18.55
2018-04-30T04:26:36.870Z,18.56
2018-04-30T04:29:03.010Z,18.58
2018-04-30T04:31:29.165Z,18.58
2018-04-30T04:33:55.353Z,18.58
2018-04-30T04:36:21.507Z,18.59
2018-04-30T04:38:48.111Z,18.60
2018-04-30T04:41:14.311Z,18.63
2018-04-30T04:43:40.737Z,18.62
2018-04-30T04:46:06.945Z,18.61
2018-04-30T04:48:33.401Z,18.61
2018-04-30T04:50:59.538Z,18.60
2018-04-30T04:53:25.751Z,18.60
2018-04-30T04:55:52.391Z,18.61
2018-04-30T04:58:18.542Z,18.62
2018-04-30T05:00:44.949Z,18.63
2018-04-30T05:03:11.386Z,18.65
2018-04-30T05:05:37.532Z,18.68
2018-04-30T05:08:03.748Z,18.70
2018-04-30T05:10:30.171Z,18.70
2018-04-30T05:12:56.361Z,18.69
2018-04-30T05:15:22.525Z,18.70
2018-04-30T05:17:48.994Z,18.70
2018-04-30T05:20:15.141Z,18.70
2018-04-30T05:22:41.290Z,18.70
2018-04-30T05:25:07.499Z,18.69
2018-04-30T05:27:33.641Z,18.69
2018-04-30T05:29:59.813Z,18.69
2018-04-30T05:32:26.220Z,18.70
2018-04-30T05:34:52.501Z,18.67
2018-04-30T05:37:18.700Z,18.66
2018-04-30T05:39:44.894Z,18.65
2018-04-30T05:42:11.194Z,18.63
2018-04-30T05:44:37.378Z,18.62
2018-04-30T05:47:03.561Z,18.62
2018-04-30T05:49:29.847Z,18.60
2018-04-30T05:51:55.985Z,18.60
2018-04-30T05:54:22.128Z,18.60
2018-04-30T05:56:48.280Z,18.62
2018-04-30T05:59:14.458Z,18.63
2018-04-30T06:01:40.610Z,18.64
2018-04-30T06:04:07.122Z,18.67
2018-04-30T06:06:33.269Z,18.69
2018-04-30T06:08:59.404Z,18.70
2018-04-30T06:11:25.690Z,18.74
2018-04-30T06:13:51.842Z,18.73
2018-04-30T06:16:17.980Z,18.80
2018-04-30T06:18:44.253Z,18.84
2018-04-30T06:21:10.388Z,18.88
2018-04-30T06:23:36.549Z,18.94
2018-04-30T06:26:02.764Z,18.98
2018-04-30T06:28:28.926Z,19.05
2018-04-30T06:30:55.110Z,19.14
2018-04-30T06:33:21.276Z,19.17
2018-04-30T06:35:48.194Z,19.13
2018-04-30T06:38:14.325Z,19.07
2018-04-30T06:40:40.486Z,19.01
2018-04-30T06:43:06.658Z,18.95
2018-04-30T06:45:32.932Z,18.91
2018-04-30T06:47:59.078Z,18.87
2018-04-30T06:50:25.217Z,18.86
2018-04-30T06:52:51.439Z,18.84
2018-04-30T06:55:17.588Z,18.86
2018-04-30T06:57:43.749Z,18.90
2018-04-30T07:00:10.228Z,18.96
2018-04-30T07:02:36.374Z,19.00
2018-04-30T07:05:02.746Z,19.01
2018-04-30T07:07:29.127Z,19.02
2018-04-30T07:09:55.272Z,19.02
2018-04-30T07:12:21.558Z,19.03
2018-04-30T07:14:47.709Z,19.06
2018-04-30T07:17:13.852Z,19.09
2018-04-30T07:19:40.365Z,19.14
2018-04-30T07:22:06.639Z,19.17
2018-04-30T07:24:32.793Z,19.21
2018-04-30T07:26:58.961Z,19.26
2018-04-30T07:29:25.233Z,19.30
2018-04-30T07:31:51.386Z,19.37
2018-04-30T07:34:17.530Z,19.42
2018-04-30T07:36:43.805Z,19.45
2018-04-30T07:39:10.007Z,19.48
2018-04-30T07:41:36.417Z,19.49
2018-04-30T07:44:02.586Z,19.48
2018-04-30T07:46:28.733Z,19.50
2018-04-30T07:48:54.919Z,19.51
2018-04-30T07:51:21.065Z,19.48
2018-04-30T07:53:47.560Z,19.46
2018-04-30T07:56:13.723Z,19.47
2018-04-30T07:58:39.878Z,19.50
2018-04-30T08:01:06.165Z,19.53
2018-04-30T08:03:32.308Z,19.57
2018-04-30T08:05:58.456Z,19.60
2018-04-30T08:08:24.644Z,19.64
2018-04-30T08:10:50.812Z,19.66
2018-04-30T08:13:17.019Z,19.65
2018-04-30T08:15:43.164Z,19.65
2018-04-30T08:18:09.307Z,19.67
2018-04-30T08:20:35.495Z,19.70
2018-04-30T08:23:01.890Z,19.73
2018-04-30T08:25:28.189Z,19.75
2018-04-30T08:27:54.439Z,19.78
2018-04-30T08:30:20.591Z,19.81
2018-04-30T08:32:46.776Z,19.80
2018-04-30T08:35:12.924Z,19.83
2018-04-30T08:37:39.076Z,19.80
2018-04-30T08:40:05.257Z,19.76
2018-04-30T08:42:31.405Z,19.72
2018-04-30T08:44:57.705Z,19.66
2018-04-30T08:47:23.809Z,19.60
2018-04-30T08:49:49.952Z,19.57
2018-04-30T08:52:16.229Z,19.54
2018-04-30T08:54:42.375Z,19.53
2018-04-30T08:57:08.530Z,19.51
2018-04-30T08:59:34.821Z,19.49
2018-04-30T09:02:00.965Z,19.47
2018-04-30T09:04:27.117Z,19.44
2018-04-30T09:06:53.301Z,19.44
2018-04-30T09:09:19.713Z,19.44
2018-04-30T09:11:46.317Z,19.44
2018-04-30T09:14:12.466Z,19.44
2018-04-30T09:16:38.634Z,19.45
2018-04-30T09:19:04.815Z,19.46
2018-04-30T09:21:31.262Z,19.48
2018-04-30T09:23:57.454Z,19.48
2018-04-30T09:26:23.655Z,19.48
2018-04-30T09:28:49.814Z,19.50
2018-04-30T09:31:15.964Z,19.53
2018-04-30T09:33:42.141Z,19.53
2018-04-30T09:36:08.629Z,19.55
2018-04-30T09:38:34.818Z,19.59
2018-04-30T09:41:01.001Z,19.65
2018-04-30T09:43:27.235Z,19.71
2018-04-30T09:45:53.469Z,19.73
2018-04-30T09:48:19.620Z,19.72
2018-04-30T09:50:45.776Z,19.73
2018-04-30T09:53:12.469Z,19.74
2018-04-30T09:55:38.632Z,19.72
2018-04-30T09:58:04.797Z,19.71
2018-04-30T10:00:31.321Z,19.67
2018-04-30T10:02:57.623Z,19.65
2018-04-30T10:05:23.777Z,19.62
2018-04-30T10:07:49.939Z,19.55
2018-04-30T10:10:16.126Z,19.50
2018-04-30T10:12:42.300Z,19.45
2018-04-30T10:15:08.898Z,19.42
2018-04-30T10:17:35.090Z,19.39
2018-04-30T10:20:01.229Z,19.37
2018-04-30T10:22:27.409Z,19.37
2018-04-30T10:24:53.565Z,19.34
2018-04-30T10:27:19.873Z,19.35
2018-04-30T10:29:46.044Z,19.34
2018-04-30T10:32:12.204Z,19.33
2018-04-30T10:34:38.727Z,19.32
2018-04-30T10:37:04.881Z,19.32
2018-04-30T10:39:38.000Z,19.33
2018-04-30T10:42:04.145Z,19.38
2018-04-30T10:44:30.292Z,19.44
2018-04-30T10:46:56.826Z,19.46
2018-04-30T10:49:22.972Z,19.44
2018-04-30T10:51:49.166Z,19.42
2018-04-30T10:54:15.372Z,19.39
2018-04-30T10:56:41.511Z,19.35
2018-04-30T10:59:07.711Z,19.34
2018-04-30T11:01:34.196Z,19.38
2018-04-30T11:04:00.340Z,19.38
2018-04-30T11:06:26.859Z,19.35
2018-04-30T11:08:53.284Z,19.34
2018-04-30T11:11:26.517Z,19.32
2018-04-30T11:13:52.669Z,19.36
2018-04-30T11:16:18.957Z,19.38
2018-04-30T11:18:45.368Z,19.39
2018-04-30T11:21:11.523Z,19.39
2018-04-30T11:23:37.699Z,19.38
2018-04-30T11:26:03.876Z,19.38
2018-04-30T11:28:30.394Z,19.42
2018-04-30T11:30:56.563Z,19.42
2018-04-30T11:33:22.709Z,19.37
2018-04-30T11:35:49.221Z,19.35
2018-04-30T11:38:15.393Z,19.33
2018-04-30T11:40:41.553Z,19.31
2018-04-30T11:43:07.763Z,19.30
2018-04-30T11:45:34.086Z,19.29
2018-04-30T11:48:00.241Z,19.27
2018-04-30T11:50:26.408Z,19.27
2018-04-30T11:52:52.593Z,19.42
2018-04-30T11:55:18.757Z,19.59
2018-04-30T11:57:44.989Z,19.60
2018-04-30T12:00:11.694Z,19.53
2018-04-30T12:02:37.853Z,19.45
2018-04-30T12:05:04.101Z,19.36
2018-04-30T12:07:30.590Z,19.29
2018-04-30T12:09:56.752Z,19.21
2018-04-30T12:12:22.920Z,19.19
2018-04-30T12:14:49.229Z,19.14
2018-04-30T12:17:15.665Z,19.16
2018-04-30T12:19:41.911Z,19.17
2018-04-30T12:22:08.100Z,19.15
2018-04-30T12:24:34.553Z,19.11
2018-04-30T12:27:00.826Z,19.11
2018-04-30T12:29:27.470Z,19.10
2018-04-30T12:31:53.659Z,19.09
2018-04-30T12:34:19.831Z,19.09
2018-04-30T12:36:46.051Z,19.09
2018-04-30T12:39:12.228Z,19.10
2018-04-30T12:41:38.409Z,19.12
2018-04-30T12:44:04.710Z,19.15
2018-04-30T12:46:30.866Z,19.18
2018-04-30T12:48:57.034Z,19.21
2018-04-30T12:51:23.254Z,19.23
2018-04-30T12:53:49.427Z,19.26
2018-04-30T12:56:15.596Z,19.30
2018-04-30T12:58:41.793Z,19.31
2018-04-30T13:01:07.958Z,19.31
2018-04-30T13:03:34.514Z,19.34
2018-04-30T13:06:00.672Z,19.36
2018-04-30T13:08:26.825Z,19.40
2018-04-30T13:10:53.405Z,19.45
2018-04-30T13:13:19.577Z,19.45
2018-04-30T13:15:46.062Z,19.40
2018-04-30T13:18:12.378Z,19.37
2018-04-30T13:20:38.541Z,19.36
2018-04-30T13:23:04.689Z,19.28
2018-04-30T13:25:30.865Z,19.20
2018-04-30T13:27:57.245Z,19.17
2018-04-30T13:30:23.752Z,19.15
2018-04-30T13:32:49.892Z,19.12
2018-04-30T13:35:16.292Z,19.11
2018-04-30T13:37:42.467Z,19.12
2018-04-30T13:40:08.624Z,19.13
2018-04-30T13:42:35.080Z,19.18
2018-04-30T13:45:01.230Z,19.29
2018-04-30T13:47:27.444Z,19.45
2018-04-30T13:49:53.595Z,19.50
2018-04-30T13:52:19.779Z,19.44
2018-04-30T13:54:46.068Z,19.39
2018-04-30T13:57:12.213Z,19.37
2018-04-30T13:59:38.354Z,19.38
2018-04-30T14:02:04.642Z,19.43
2018-04-30T14:04:30.796Z,19.48
2018-04-30T14:06:56.939Z,19.55
2018-04-30T14:09:23.420Z,19.60
2018-04-30T14:11:49.578Z,19.60
2018-04-30T14:14:15.748Z,19.52
2018-04-30T14:16:41.912Z,19.41
2018-04-30T14:19:08.092Z,19.30
2018-04-30T14:21:34.312Z,19.21
2018-04-30T14:24:00.453Z,19.15
2018-04-30T14:26:26.625Z,19.11
2018-04-30T14:28:52.801Z,19.07
2018-04-30T14:31:18.996Z,19.05
2018-04-30T14:33:45.465Z,19.02
2018-04-30T14:36:11.627Z,19.00
2018-04-30T14:38:38.159Z,19.00
2018-04-30T14:41:04.313Z,19.01
2018-04-30T14:43:30.460Z,19.06
2018-04-30T14:45:56.641Z,19.29
2018-04-30T14:48:22.798Z,19.76
2018-04-30T14:50:49.267Z,20.38
2018-04-30T14:53:15.407Z,23.21
2018-04-30T14:55:41.602Z,25.25
2018-04-30T14:58:08.064Z,26.19
2018-04-30T15:00:34.205Z,26.24
2018-04-30T15:03:00.393Z,25.79
2018-04-30T15:05:26.534Z,24.78
2018-04-30T15:07:52.683Z,25.51
2018-04-30T15:10:18.864Z,26.11
2018-04-30T15:12:44.994Z,26.57
2018-04-30T15:15:11.128Z,25.78
2018-04-30T15:17:37.325Z,26.47
2018-04-30T15:20:03.498Z,26.22
2018-04-30T15:22:29.639Z,26.20
2018-04-30T15:24:55.846Z,24.44
2018-04-30T15:27:22.278Z,23.04
2018-04-30T15:29:48.421Z,22.04
2018-04-30T15:32:15.046Z,21.37
2018-04-30T15:34:41.212Z,21.04
2018-04-30T15:37:07.346Z,21.52
2018-04-30T15:39:33.510Z,21.93
2018-04-30T15:41:59.743Z,22.07
2018-04-30T15:44:25.921Z,22.34
2018-04-30T15:46:52.098Z,22.36
2018-04-30T15:49:18.301Z,22.51
2018-04-30T15:51:44.534Z,22.35
2018-04-30T15:54:10.703Z,22.25
2018-04-30T15:56:36.978Z,22.39
2018-04-30T15:59:03.449Z,22.19
2018-04-30T16:01:29.693Z,22.10
2018-04-30T16:03:55.833Z,22.16
2018-04-30T16:06:21.979Z,22.39
2018-04-30T16:08:48.465Z,22.08
2018-04-30T16:11:14.742Z,21.50
2018-04-30T16:13:40.921Z,21.15
2018-04-30T16:16:07.066Z,20.93
2018-04-30T16:18:33.272Z,20.92
2018-04-30T16:20:59.430Z,20.95
2018-04-30T16:23:25.598Z,20.86
2018-04-30T16:25:51.775Z,20.84
2018-04-30T16:28:17.911Z,21.00
2018-04-30T16:30:44.081Z,21.00
2018-04-30T16:33:10.541Z,21.41
2018-04-30T16:35:36.723Z,21.45
2018-04-30T16:38:02.861Z,21.73
2018-04-30T16:40:29.022Z,21.53
2018-04-30T16:42:55.168Z,21.48
2018-04-30T16:45:21.346Z,21.39
2018-04-30T16:47:47.476Z,21.40
2018-04-30T16:50:14.085Z,21.28
2018-04-30T16:52:40.254Z,21.06
2018-04-30T16:55:06.552Z,20.82
2018-04-30T16:57:32.730Z,20.73
2018-04-30T16:59:59.025Z,20.64
2018-04-30T17:02:25.185Z,20.65
2018-04-30T17:04:51.336Z,20.72
2018-04-30T17:07:17.515Z,20.96
2018-04-30T17:09:43.657Z,21.12
2018-04-30T17:12:09.842Z,21.20
2018-04-30T17:14:36.062Z,21.32
2018-04-30T17:17:02.209Z,21.47
2018-04-30T17:19:28.353Z,21.42
2018-04-30T17:21:54.530Z,21.16
2018-04-30T17:24:20.937Z,20.85
2018-04-30T17:26:47.104Z,20.63
2018-04-30T17:29:13.268Z,20.49
2018-04-30T17:31:39.590Z,20.39
2018-04-30T17:34:05.949Z,20.35
2018-04-30T17:36:32.208Z,20.34
2018-04-30T17:38:58.314Z,20.34
2018-04-30T17:41:24.828Z,20.35
2018-04-30T17:43:51.316Z,20.33
2018-04-30T17:46:17.521Z,20.41
2018-04-30T17:48:43.660Z,20.71
2018-04-30T17:51:09.830Z,20.95
2018-04-30T17:53:36.532Z,21.07
2018-04-30T17:56:02.704Z,20.92
2018-04-30T17:58:28.861Z,20.96
2018-04-30T18:00:55.032Z,21.05
2018-04-30T18:03:21.177Z,21.05
2018-04-30T18:05:47.384Z,21.06
2018-04-30T18:08:13.557Z,21.07
2018-04-30T18:10:39.706Z,21.06
2018-04-30T18:13:05.896Z,21.07
2018-04-30T18:15:32.272Z,21.06
2018-04-30T18:17:58.480Z,21.03
2018-04-30T18:20:24.625Z,20.99
2018-04-30T18:22:50.777Z,20.89
2018-04-30T18:25:16.954Z,20.78
2018-04-30T18:27:43.089Z,20.68
2018-04-30T18:30:09.259Z,20.59
2018-04-30T18:32:35.487Z,20.49
2018-04-30T18:35:01.642Z,20.41
2018-04-30T18:37:27.792Z,20.35
2018-04-30T18:39:53.983Z,20.30
2018-04-30T18:42:20.134Z,20.25
2018-04-30T18:44:46.362Z,20.21
2018-04-30T18:47:12.530Z,20.16
2018-04-30T18:49:38.684Z,20.13
2018-04-30T18:52:04.889Z,20.09
2018-04-30T18:54:31.065Z,20.06
2018-04-30T18:56:57.213Z,20.03
2018-04-30T18:59:23.389Z,20.00
2018-04-30T19:01:49.553Z,19.97
2018-04-30T19:04:16.209Z,19.95
2018-04-30T19:06:42.369Z,19.93
2018-04-30T19:09:08.524Z,19.91
2018-04-30T19:11:34.718Z,19.87
2018-04-30T19:14:01.194Z,19.85
2018-04-30T19:16:27.349Z,19.83
2018-04-30T19:18:53.507Z,19.80
2018-04-30T19:21:19.750Z,19.78
2018-04-30T19:23:45.903Z,19.74
2018-04-30T19:26:12.066Z,19.71
2018-04-30T19:28:38.257Z,19.67
2018-04-30T19:31:04.447Z,19.62
2018-04-30T19:33:30.629Z,19.60
2018-04-30T19:35:56.828Z,19.55
2018-04-30T19:38:22.987Z,19.52
2018-04-30T19:40:49.137Z,19.49
2018-04-30T19:43:15.321Z,19.45
2018-04-30T19:45:41.473Z,19.43
2018-04-30T19:48:07.645Z,19.40
2018-04-30T19:50:34.101Z,19.37
2018-04-30T19:53:00.322Z,19.34
2018-04-30T19:55:26.596Z,19.32
2018-04-30T19:57:53.098Z,19.29
2018-04-30T20:00:19.268Z,19.26
2018-04-30T20:02:45.449Z,19.23
2018-04-30T20:05:11.646Z,19.20
2018-04-30T20:07:37.823Z,19.19
2018-04-30T20:10:03.994Z,19.17
2018-04-30T20:12:30.150Z,19.15
2018-04-30T20:14:56.328Z,19.13
2018-04-30T20:17:22.509Z,19.12
2018-04-30T20:19:48.657Z,19.10
2018-04-30T20:22:14.834Z,19.09
2018-04-30T20:24:40.976Z,19.06
2018-04-30T20:27:07.421Z,19.05
2018-04-30T20:29:33.574Z,19.04
2018-04-30T20:31:59.761Z,19.02
2018-04-30T20:34:25.931Z,19.01
2018-04-30T20:36:52.126Z,18.98
2018-04-30T20:39:18.301Z,18.98
2018-04-30T20:41:44.506Z,18.97
2018-04-30T20:44:10.920Z,18.95
2018-04-30T20:46:37.095Z,18.94
2018-04-30T20:49:03.277Z,18.92
2018-04-30T20:51:29.425Z,18.91
2018-04-30T20:53:55.606Z,18.91
2018-04-30T20:56:21.763Z,18.89
2018-04-30T20:58:48.592Z,18.88
2018-04-30T21:01:14.748Z,18.87
2018-04-30T21:03:40.897Z,18.87
2018-04-30T21:06:07.113Z,18.86
2018-04-30T21:08:45.489Z,18.84
2018-04-30T21:11:11.661Z,18.82
2018-04-30T21:13:37.841Z,18.82
2018-04-30T21:16:04.060Z,18.80
2018-04-30T21:18:30.212Z,18.79
2018-04-30T21:20:56.381Z,18.78
2018-04-30T21:23:22.532Z,18.76
2018-04-30T21:25:48.702Z,18.73
2018-04-30T21:28:14.874Z,18.74
2018-04-30T21:30:41.040Z,18.74
2018-04-30T21:33:07.274Z,18.73
2018-04-30T21:35:33.688Z,18.73
2018-04-30T21:37:59.834Z,18.71
2018-04-30T21:40:26.010Z,18.70
2018-04-30T21:42:52.479Z,18.68
2018-04-30T21:45:18.654Z,18.67
2018-04-30T21:47:44.809Z,18.66
2018-04-30T21:50:11.080Z,18.66
2018-04-30T21:52:37.217Z,18.64
2018-04-30T21:55:03.617Z,18.64
2018-04-30T21:57:29.833Z,18.64
2018-04-30T21:59:55.976Z,18.64
2018-04-30T22:02:22.409Z,18.63
2018-04-30T22:04:48.842Z,18.62
2018-04-30T22:07:14.986Z,18.60
2018-04-30T22:09:41.130Z,18.60
2018-04-30T22:12:07.342Z,18.57
2018-04-30T22:14:33.749Z,18.55
2018-04-30T22:17:00.189Z,18.55
2018-04-30T22:19:26.617Z,18.54
2018-04-30T22:21:52.769Z,18.54
2018-04-30T22:24:18.952Z,18.54
2018-04-30T22:26:45.089Z,18.52
2018-04-30T22:29:11.653Z,18.50
2018-04-30T22:31:38.066Z,18.47
2018-04-30T22:34:04.238Z,18.47
2018-04-30T22:36:30.724Z,18.46
2018-04-30T22:38:57.162Z,18.45
2018-04-30T22:41:23.594Z,18.44
2018-04-30T22:43:49.757Z,18.44
2018-04-30T22:46:15.929Z,18.44
2018-04-30T22:48:42.382Z,18.45
2018-04-30T22:51:08.530Z,18.46
2018-04-30T22:53:34.738Z,18.46
2018-04-30T22:56:00.884Z,18.45
2018-04-30T22:58:27.288Z,18.43
2018-04-30T23:00:53.484Z,18.42
2018-04-30T23:03:19.634Z,18.42
2018-04-30T23:05:45.768Z,18.41
2018-04-30T23:08:12.308Z,18.41
2018-04-30T23:10:38.456Z,18.41
2018-04-30T23:13:04.598Z,18.40
2018-04-30T23:15:30.769Z,18.39
2018-04-30T23:17:56.907Z,18.38
2018-04-30T23:20:23.407Z,18.39
2018-04-30T23:22:49.552Z,18.37
2018-04-30T23:25:15.693Z,18.36
2018-04-30T23:27:41.996Z,18.35
2018-04-30T23:30:08.140Z,18.36
2018-04-30T23:32:34.285Z,18.33
2018-04-30T23:35:00.466Z,18.34
2018-04-30T23:37:26.593Z,18.34
2018-04-30T23:39:53.217Z,18.33
2018-04-30T23:42:19.610Z,18.32
2018-04-30T23:44:45.997Z,18.31
2018-04-30T23:47:12.176Z,18.31
2018-04-30T23:49:38.330Z,18.30
2018-04-30T23:52:04.501Z,18.30
2018-04-30T23:54:30.648Z,18.31
2018-04-30T23:56:56.812Z,18.32
2018-04-30T23:59:22.984Z,18.31
